Terminal Aerodrome Forecast
Issued by NWS Pendleton, OR

Home | Current Version | Previous Version | Text Only | Print | Product List | Glossary On
Versions: 1 2 3 4 5 6 7 8 9 10 11 12 13 14 15 16 17
223
FTUS46 KPDT 021738
TAFPDT
TAF
KPDT 021738Z 0218/0318 20007KT P6SM OVC035
     FM022000 22008KT P6SM VCSH BKN050 OVC090
     FM030300 21011KT P6SM VCSH BKN045 OVC060
     FM030800 23011G16KT P6SM SCT040 BKN200=

USA.gov is the U.S. government's official web portal to all federal, state and local government web resources and services.